Time;durP1;ratioP1;P1;durP2;ratioP2;P2;SDS_P1;SDS_P2;PMS_P1;PMS_P2;Temp;Humidity;BMP_temperature;BMP_pressure;BME280_temperature;BME280_humidity;BME280_pressure;Samples;Min_cycle;Max_cycle;Signal;HPM_P1;HPM_P2
2023/04/30 00:00:10;;;;;;;2.30;1.75;;;18.40;68.50;;;;;;5052275;28;20049;-30
2023/04/30 00:02:36;;;;;;;1.33;1.23;;;18.70;56.50;;;;;;5052626;28;20131;-30
2023/04/30 00:05:11;;;;;;;2.22;1.55;;;18.80;68.20;;;;;;5089421;27;20880;-32
2023/04/30 00:07:41;;;;;;;1.83;1.33;;;18.80;68.50;;;;;;5089725;28;20048;-33
2023/04/30 00:10:09;;;;;;;3.20;1.48;;;18.50;56.60;;;;;;5089195;28;20055;-33
2023/04/30 00:12:36;;;;;;;2.45;1.60;;;18.70;61.30;;;;;;5085697;28;20042;-32
2023/04/30 00:15:03;;;;;;;2.55;1.40;;;18.60;68.30;;;;;;5069132;28;20075;-31
2023/04/30 00:17:29;;;;;;;1.98;1.50;;;18.30;54.90;;;;;;5069328;28;20070;-32
2023/04/30 00:19:56;;;;;;;3.05;1.58;;;19.70;68.80;;;;;;5080384;28;20054;-32
2023/04/30 00:22:24;;;;;;;2.50;1.48;;;19.60;68.80;;;;;;5089085;28;20060;-31
2023/04/30 00:24:51;;;;;;;1.58;1.30;;;18.20;68.50;;;;;;5089322;28;20066;-32
2023/04/30 00:27:18;;;;;;;1.52;1.17;;;;;;;;;;5089047;28;20050;-35
2023/04/30 00:29:45;;;;;;;2.70;1.40;;;19.40;69.00;;;;;;5088402;28;20058;-31
2023/04/30 00:32:12;;;;;;;1.70;1.25;;;;;;;;;;5088040;28;20459;-32
2023/04/30 00:34:38;;;;;;;2.08;1.38;;;18.70;68.10;;;;;;5088980;28;20384;-31
2023/04/30 00:37:05;;;;;;;2.17;1.30;;;17.90;67.90;;;;;;5088608;28;20123;-31
2023/04/30 00:39:33;;;;;;;2.40;1.52;;;18.50;49.50;;;;;;5088832;28;20528;-35
2023/04/30 00:42:01;;;;;;;2.30;1.30;;;;;;;;;;5087761;28;20052;-31
2023/04/30 00:44:27;;;;;;;2.42;1.38;;;18.20;54.90;;;;;;5088381;28;20094;-31
2023/04/30 00:46:55;;;;;;;2.85;1.38;;;;;;;;;;5088689;28;20048;-34
2023/04/30 00:49:21;;;;;;;1.83;1.48;;;18.30;68.50;;;;;;5088814;28;20052;-31
2023/04/30 00:51:48;;;;;;;2.85;1.40;;;18.40;68.20;;;;;;5088679;28;20653;-32
2023/04/30 00:54:15;;;;;;;1.70;1.30;;;18.60;55.60;;;;;;5088576;28;20048;-32
2023/04/30 00:56:43;;;;;;;1.67;1.38;;;18.50;49.50;;;;;;5088419;28;20044;-32
2023/04/30 00:59:09;;;;;;;2.85;1.88;;;18.50;64.40;;;;;;5074120;28;20055;-31
2023/04/30 01:01:36;;;;;;;2.03;1.20;;;18.50;68.70;;;;;;5068193;28;20131;-31
2023/04/30 01:04:03;;;;;;;1.30;1.20;;;;;;;;;;5067785;28;20058;-34
2023/04/30 01:06:30;;;;;;;2.08;1.40;;;18.90;68.50;;;;;;5067847;28;20497;-31
2023/04/30 01:08:57;;;;;;;2.97;1.30;;;;;;;;;;5068053;28;20055;-36
2023/04/30 01:11:28;;;;;;;1.75;1.25;;;18.60;68.70;;;;;;5067946;28;20383;-32
2023/04/30 01:13:59;;;;;;;1.55;1.30;;;18.40;49.50;;;;;;5081656;28;20485;-34
2023/04/30 01:16:28;;;;;;;1.98;1.20;;;18.60;68.40;;;;;;5075503;28;20466;-31
2023/04/30 01:18:56;;;;;;;2.15;1.33;;;18.50;68.80;;;;;;5072868;28;20060;-31
2023/04/30 01:21:23;;;;;;;1.23;1.13;;;;;;;;;;5074668;28;20055;-35
2023/04/30 01:24:00;;;;;;;1.83;1.30;;;18.50;68.30;;;;;;5074233;28;20051;-31
2023/04/30 01:26:35;;;;;;;2.17;1.45;;;19.10;69.00;;;;;;5073456;28;20400;-31
2023/04/30 01:29:03;;;;;;;2.10;1.23;;;18.40;61.80;;;;;;5074639;28;20054;-31
2023/04/30 01:31:30;;;;;;;1.38;1.27;;;19.10;68.70;;;;;;5074643;28;20048;-31
2023/04/30 01:33:57;;;;;;;2.00;1.30;;;18.00;68.30;;;;;;5074302;28;20049;-31
2023/04/30 01:36:34;;;;;;;2.08;1.35;;;18.30;49.50;;;;;;5074104;28;20048;-32
2023/04/30 01:39:07;;;;;;;1.90;1.20;;;18.10;68.60;;;;;;5074096;28;20052;-31
2023/04/30 01:41:37;;;;;;;1.85;1.38;;;18.30;49.50;;;;;;5073330;28;20064;-35
2023/04/30 01:44:17;;;;;;;1.73;1.35;;;18.50;62.00;;;;;;5074093;28;20083;-30
2023/04/30 01:46:46;;;;;;;2.25;1.60;;;18.20;54.40;;;;;;5074198;28;20512;-32
2023/04/30 01:49:15;;;;;;;1.92;1.30;;;17.90;68.40;;;;;;5074184;28;20057;-29
2023/04/30 01:51:42;;;;;;;2.03;1.30;;;;;;;;;;5074013;28;20048;-35
2023/04/30 01:54:13;;;;;;;2.03;1.40;;;18.30;53.10;;;;;;5073641;28;20048;-31
2023/04/30 01:56:42;;;;;;;1.98;1.15;;;18.30;49.50;;;;;;5054398;28;20055;-33
2023/04/30 01:59:10;;;;;;;2.10;1.20;;;17.20;49.60;;;;;;5053885;28;20049;-33
2023/04/30 02:01:37;;;;;;;1.63;1.20;;;;;;;;;;5054116;28;20053;-34
2023/04/30 02:04:04;;;;;;;1.60;1.10;;;18.20;68.40;;;;;;5053357;28;20103;-30
2023/04/30 02:06:31;;;;;;;2.00;1.40;;;18.40;52.90;;;;;;5053691;28;20056;-33
2023/04/30 02:09:01;;;;;;;1.80;1.20;;;18.70;69.00;;;;;;5061157;28;20044;-31
2023/04/30 02:11:29;;;;;;;1.65;1.30;;;;;;;;;;5073766;28;20121;-31
2023/04/30 02:13:56;;;;;;;2.05;1.13;;;17.90;68.50;;;;;;5073483;28;20063;-31
2023/04/30 02:16:24;;;;;;;1.35;1.17;;;18.30;68.60;;;;;;5073432;28;20419;-31
2023/04/30 02:18:51;;;;;;;1.10;1.00;;;18.70;69.00;;;;;;5073749;28;20451;-32
2023/04/30 02:21:18;;;;;;;2.15;1.20;;;18.50;66.50;;;;;;5073462;28;20051;-31
2023/04/30 02:23:44;;;;;;;2.10;1.17;;;17.90;55.60;;;;;;5072426;28;20414;-31
2023/04/30 02:26:12;;;;;;;2.35;1.30;;;;;;;;;;5073135;28;20049;-34
2023/04/30 02:28:38;;;;;;;1.50;1.10;;;18.40;68.60;;;;;;5072699;28;20054;-31
2023/04/30 02:31:06;;;;;;;1.15;1.05;;;;;;;;;;5073273;28;20059;-35
2023/04/30 02:33:34;;;;;;;1.52;1.00;;;19.20;69.30;;;;;;5073196;28;20044;-32
2023/04/30 02:36:00;;;;;;;2.03;1.10;;;18.40;68.50;;;;;;5072588;28;20055;-31
2023/04/30 02:38:27;;;;;;;1.60;1.20;;;18.40;68.70;;;;;;5072472;28;20051;-31
2023/04/30 02:40:54;;;;;;;1.27;1.00;;;;;;;;;;5073017;28;20517;-33
2023/04/30 02:43:21;;;;;;;2.75;1.30;;;18.40;69.00;;;;;;5072806;28;20463;-31
2023/04/30 02:45:48;;;;;;;1.50;1.10;;;;;;;;;;5072663;28;20055;-34
2023/04/30 02:48:15;;;;;;;2.13;1.35;;;18.10;68.50;;;;;;5073096;28;20049;-31
2023/04/30 02:50:43;;;;;;;1.75;1.20;;;18.10;49.50;;;;;;5072778;28;20508;-35
2023/04/30 02:53:10;;;;;;;1.55;1.05;;;;;;;;;;5056956;28;20049;-35
2023/04/30 02:55:37;;;;;;;2.22;1.20;;;18.40;68.70;;;;;;5052850;28;20041;-31
2023/04/30 02:58:03;;;;;;;2.63;1.30;;;18.30;68.60;;;;;;5052665;28;20059;-32
2023/04/30 03:00:30;;;;;;;1.55;1.10;;;;;;;;;;5052392;28;20049;-35
2023/04/30 03:02:57;;;;;;;2.38;1.10;;;18.50;69.00;;;;;;5052544;28;20045;-31
2023/04/30 03:05:25;;;;;;;1.15;1.02;;;;;;;;;;5055591;28;20131;-35
2023/04/30 03:07:53;;;;;;;1.48;1.00;;;18.60;69.00;;;;;;5072551;28;20052;-31
2023/04/30 03:10:19;;;;;;;1.88;1.10;;;18.00;57.90;;;;;;5072507;28;20055;-31
2023/04/30 03:12:46;;;;;;;2.53;1.23;;;18.10;68.50;;;;;;5072042;28;20497;-31
2023/04/30 03:15:13;;;;;;;1.67;1.17;;;;;;;;;;5072504;28;20044;-35
2023/04/30 03:17:40;;;;;;;2.15;1.10;;;18.10;68.80;;;;;;5072469;28;20127;-31
2023/04/30 03:20:07;;;;;;;1.70;1.20;;;18.80;68.90;;;;;;5071828;28;20049;-31
2023/04/30 03:22:34;;;;;;;2.00;1.10;;;18.40;69.10;;;;;;5072087;28;20049;-31
2023/04/30 03:25:02;;;;;;;1.95;1.20;;;18.00;49.30;;;;;;5072238;28;20513;-35
2023/04/30 03:27:29;;;;;;;1.38;1.00;;;;;;;;;;5072330;28;20059;-35
2023/04/30 03:29:56;;;;;;;1.23;1.08;;;18.30;68.60;;;;;;5072171;28;20055;-31
2023/04/30 03:32:23;;;;;;;2.72;0.90;;;18.40;68.70;;;;;;5072117;28;20058;-31
2023/04/30 03:34:50;;;;;;;1.73;1.20;;;18.00;50.70;;;;;;5071526;28;20040;-33
2023/04/30 03:37:17;;;;;;;1.77;1.10;;;;;;;;;;5071640;28;20144;-31
2023/04/30 03:39:44;;;;;;;1.73;1.10;;;17.40;65.40;;;;;;5071695;28;20048;-31
2023/04/30 03:42:12;;;;;;;1.30;1.10;;;16.80;53.90;;;;;;5071602;28;20059;-34
2023/04/30 03:44:38;;;;;;;2.33;1.13;;;17.60;68.30;;;;;;5072065;28;20048;-31
2023/04/30 03:47:05;;;;;;;2.25;1.00;;;17.80;68.70;;;;;;5072149;28;20052;-31
2023/04/30 03:49:32;;;;;;;1.58;1.00;;;16.70;54.00;;;;;;5071324;28;20412;-32
2023/04/30 03:51:59;;;;;;;1.13;1.02;;;18.30;68.70;;;;;;5071991;28;20045;-31
2023/04/30 03:54:25;;;;;;;1.50;1.13;;;18.20;68.70;;;;;;5071512;28;20048;-31
2023/04/30 03:56:52;;;;;;;1.15;1.00;;;18.10;51.90;;;;;;5072075;28;20049;-33
2023/04/30 03:59:20;;;;;;;1.40;1.08;;;18.20;68.70;;;;;;5071790;28;20060;-31
2023/04/30 04:01:47;;;;;;;1.52;1.13;;;18.10;68.70;;;;;;5071875;28;20409;-31
2023/04/30 04:04:13;;;;;;;1.77;1.00;;;17.80;68.50;;;;;;5070930;28;20055;-31
2023/04/30 04:06:40;;;;;;;1.08;1.00;;;;;;;;;;5071782;28;20048;-35
2023/04/30 04:09:07;;;;;;;2.25;1.30;;;17.70;68.70;;;;;;5071350;28;20052;-29
2023/04/30 04:11:34;;;;;;;1.52;1.00;;;17.60;68.30;;;;;;5071680;28;20481;-31
2023/04/30 04:14:01;;;;;;;1.10;1.00;;;;;;;;;;5071725;28;20044;-34
2023/04/30 04:16:29;;;;;;;1.80;0.90;;;17.90;49.40;;;;;;5071864;28;20053;-31
2023/04/30 04:18:56;;;;;;;1.67;1.00;;;;;;;;;;5071077;28;20067;-33
2023/04/30 04:21:23;;;;;;;2.63;1.10;;;;;;;;;;5071510;28;20052;-34
2023/04/30 04:23:50;;;;;;;1.45;1.00;;;17.00;63.60;;;;;;5071568;28;20050;-31
2023/04/30 04:26:18;;;;;;;1.70;1.10;;;18.30;69.10;;;;;;5071712;28;20044;-31
2023/04/30 04:28:46;;;;;;;1.15;0.90;;;;;;;;;;5071560;28;20054;-35
2023/04/30 04:31:13;;;;;;;1.35;1.10;;;;;;;;;;5070863;28;20417;-35
2023/04/30 04:33:41;;;;;;;1.48;1.05;;;18.00;68.50;;;;;;5071361;28;20190;-31
2023/04/30 04:36:08;;;;;;;1.20;1.02;;;17.80;68.80;;;;;;5070746;28;20127;-32
2023/04/30 04:38:34;;;;;;;1.85;1.10;;;17.90;68.90;;;;;;5071688;28;20049;-31
2023/04/30 04:41:01;;;;;;;2.08;1.00;;;;;;;;;;5071411;28;20074;-35
2023/04/30 04:43:28;;;;;;;1.38;1.00;;;18.30;69.10;;;;;;5071238;28;20493;-31
2023/04/30 04:45:55;;;;;;;1.65;1.00;;;18.10;69.10;;;;;;5070786;28;20041;-32
2023/04/30 04:48:22;;;;;;;1.10;1.00;;;;;;;;;;5071691;28;20067;-33
2023/04/30 04:50:50;;;;;;;1.65;1.00;;;17.60;68.40;;;;;;5073125;28;20503;-30
2023/04/30 04:53:17;;;;;;;1.80;1.10;;;17.30;68.10;;;;;;5075177;28;20055;-31
2023/04/30 04:55:43;;;;;;;1.25;1.00;;;16.70;68.20;;;;;;5075221;28;20045;-31
2023/04/30 04:58:10;;;;;;;1.15;0.95;;;19.10;54.70;;;;;;5074973;28;20493;-32
2023/04/30 05:00:37;;;;;;;1.75;1.10;;;;;;;;;;5061214;28;20057;-31
2023/04/30 05:03:04;;;;;;;1.35;0.90;;;;;;;;;;5054337;28;20048;-34
2023/04/30 05:05:31;;;;;;;1.10;0.90;;;18.20;68.80;;;;;;5070957;28;20057;-31
2023/04/30 05:07:59;;;;;;;1.00;0.90;;;19.10;60.60;;;;;;5074710;28;20523;-31
2023/04/30 05:10:26;;;;;;;1.55;1.10;;;19.00;69.10;;;;;;5075096;28;20062;-31
2023/04/30 05:12:53;;;;;;;1.50;1.10;;;17.90;60.30;;;;;;5074301;28;20072;-31
2023/04/30 05:15:20;;;;;;;0.90;0.90;;;18.40;69.00;;;;;;5074045;28;20044;-31
2023/04/30 05:17:47;;;;;;;1.02;0.90;;;;;;;;;;5074523;28;20575;-34
2023/04/30 05:20:13;;;;;;;1.45;1.05;;;17.80;68.20;;;;;;5074816;28;20056;-31
2023/04/30 05:22:40;;;;;;;1.00;0.90;;;17.90;68.30;;;;;;5074627;28;20048;-31
2023/04/30 05:25:09;;;;;;;1.30;0.80;;;19.10;58.70;;;;;;5074333;28;20047;-32
2023/04/30 05:27:36;;;;;;;0.98;0.90;;;19.20;69.00;;;;;;5073773;28;20059;-31
2023/04/30 05:30:03;;;;;;;1.23;0.90;;;;;;;;;;5074449;28;20087;-35
2023/04/30 05:32:30;;;;;;;1.15;0.80;;;16.90;67.60;;;;;;5074182;28;20045;-32
2023/04/30 05:34:56;;;;;;;1.25;1.15;;;18.20;68.40;;;;;;5074224;28;20481;-30
2023/04/30 05:37:23;;;;;;;1.00;0.90;;;;;;;;;;5074051;28;20050;-32
2023/04/30 05:39:52;;;;;;;0.85;0.85;;;18.40;69.00;;;;;;5074156;28;20052;-31
2023/04/30 05:42:20;;;;;;;1.73;1.00;;;18.30;68.90;;;;;;5073262;28;20048;-31
2023/04/30 05:44:47;;;;;;;1.95;0.90;;;;;;;;;;5073546;28;20595;-34
2023/04/30 05:47:14;;;;;;;0.95;0.90;;;18.60;69.10;;;;;;5074294;28;20048;-31
2023/04/30 05:49:41;;;;;;;1.45;1.02;;;17.90;68.90;;;;;;5074185;28;20054;-31
2023/04/30 05:52:08;;;;;;;1.02;0.80;;;;;;;;;;5073845;28;20516;-35
2023/04/30 05:54:35;;;;;;;0.80;0.80;;;19.10;69.40;;;;;;5074045;28;20048;-31
2023/04/30 05:57:02;;;;;;;1.38;0.85;;;17.50;53.80;;;;;;5064254;28;20055;-32
2023/04/30 05:59:31;;;;;;;1.10;0.90;;;18.10;68.90;;;;;;5053874;28;20045;-31
2023/04/30 06:01:58;;;;;;;1.25;1.00;;;;;;;;;;5069966;28;20467;-35
2023/04/30 06:04:25;;;;;;;1.33;0.90;;;17.90;66.90;;;;;;5073295;28;20489;-31
2023/04/30 06:06:51;;;;;;;1.85;0.98;;;18.50;69.20;;;;;;5065685;28;20086;-31
2023/04/30 06:09:18;;;;;;;1.30;0.90;;;;;;;;;;5059715;28;20509;-34
2023/04/30 06:11:49;;;;;;;1.42;0.90;;;;;;;;;;5062723;28;20077;-32
2023/04/30 06:14:16;;;;;;;1.00;0.80;;;18.30;69.10;;;;;;5058806;28;20098;-30
2023/04/30 06:16:44;;;;;;;1.20;0.90;;;18.50;51.60;;;;;;5063804;28;20044;-33
2023/04/30 06:19:11;;;;;;;1.45;1.00;;;18.00;65.20;;;;;;5062012;28;20053;-32
2023/04/30 06:21:37;;;;;;;1.40;0.90;;;19.20;69.10;;;;;;5063569;28;20132;-31
2023/04/30 06:24:04;;;;;;;0.88;0.85;;;17.90;68.80;;;;;;5063872;28;20481;-32
2023/04/30 06:26:31;;;;;;;3.03;1.00;;;17.60;68.60;;;;;;5063625;28;20044;-31
2023/04/30 06:28:58;;;;;;;1.10;1.00;;;16.90;68.00;;;;;;5062762;28;20048;-32
2023/04/30 06:31:25;;;;;;;2.53;1.60;;;;;;;;;;5073536;28;20428;-33
2023/04/30 06:33:53;;;;;;;2.50;1.10;;;17.60;68.70;;;;;;5063896;28;20545;-31
2023/04/30 06:36:20;;;;;;;1.17;1.00;;;17.40;68.10;;;;;;5061385;28;20047;-31
2023/04/30 06:38:47;;;;;;;1.48;0.98;;;;;;;;;;5062013;28;20055;-34
2023/04/30 06:41:14;;;;;;;1.35;0.90;;;17.80;68.50;;;;;;5063422;28;20051;-31
2023/04/30 06:43:41;;;;;;;2.00;1.00;;;;;;;;;;5064728;28;20041;-35
2023/04/30 06:46:08;;;;;;;2.35;1.10;;;18.50;69.20;;;;;;5060849;28;20051;-31
2023/04/30 06:48:34;;;;;;;1.55;1.00;;;18.00;69.00;;;;;;5060597;28;20051;-31
2023/04/30 06:51:03;;;;;;;1.58;1.10;;;18.10;49.50;;;;;;5062793;28;20425;-34
2023/04/30 06:53:30;;;;;;;1.83;1.20;;;;;;;;;;5055220;28;20048;-32
2023/04/30 06:55:56;;;;;;;1.50;0.88;;;19.20;69.40;;;;;;5052834;28;20071;-30
2023/04/30 06:58:24;;;;;;;2.85;1.08;;;;;;;;;;5071124;28;20056;-35
2023/04/30 07:00:51;;;;;;;1.70;1.10;;;18.40;60.60;;;;;;5072708;28;20048;-31
2023/04/30 07:03:18;;;;;;;1.13;0.80;;;;;;;;;;5072144;28;20139;-35
2023/04/30 07:05:44;;;;;;;1.25;0.90;;;18.10;68.10;;;;;;5072678;28;20049;-31
2023/04/30 07:08:14;;;;;;;0.95;0.80;;;18.80;63.20;;;;;;5072343;28;20048;-31
2023/04/30 07:10:40;;;;;;;1.10;0.80;;;18.80;64.70;;;;;;5069468;28;20123;-32
2023/04/30 07:13:08;;;;;;;1.63;1.10;;;;;;;;;;5051684;28;20053;-31
2023/04/30 07:15:34;;;;;;;1.23;0.88;;;19.00;64.80;;;;;;5056930;28;20037;-31
2023/04/30 07:18:02;;;;;;;1.90;1.00;;;19.30;68.30;;;;;;5061210;28;20079;-31
2023/04/30 07:20:29;;;;;;;1.35;1.13;;;18.90;67.50;;;;;;5063187;28;20040;-31
2023/04/30 07:22:56;;;;;;;1.50;1.08;;;;;;;;;;5062519;28;20044;-31
2023/04/30 07:25:25;;;;;;;1.33;0.90;;;19.20;48.70;;;;;;5067796;28;20040;-36
2023/04/30 07:27:53;;;;;;;2.08;1.10;;;;;;;;;;5058412;28;20044;-34
2023/04/30 07:30:19;;;;;;;1.77;0.90;;;19.40;67.50;;;;;;5060076;28;20401;-31
2023/04/30 07:32:47;;;;;;;1.25;0.98;;;19.50;67.40;;;;;;5060790;28;20050;-31
2023/04/30 07:35:14;;;;;;;1.33;0.90;;;19.20;67.10;;;;;;5051337;28;20395;-31
2023/04/30 07:37:42;;;;;;;1.33;0.90;;;;;;;;;;5058716;28;20048;-35
2023/04/30 07:40:11;;;;;;;1.33;0.90;;;19.40;56.60;;;;;;5062322;28;20056;-33
2023/04/30 07:42:40;;;;;;;1.35;0.98;;;19.80;66.90;;;;;;5058277;28;20049;-32
2023/04/30 07:45:08;;;;;;;3.05;1.20;;;19.60;51.20;;;;;;5051088;28;20060;-33
2023/04/30 07:47:35;;;;;;;1.48;0.82;;;18.70;65.70;;;;;;5051603;28;20043;-31
2023/04/30 07:50:02;;;;;;;1.70;1.02;;;20.00;59.80;;;;;;5051498;28;20049;-31
2023/04/30 07:52:28;;;;;;;1.67;0.90;;;19.70;66.00;;;;;;5053096;28;20099;-31
2023/04/30 07:54:56;;;;;;;1.00;0.90;;;;;;;;;;5071047;28;20053;-34
2023/04/30 07:57:25;;;;;;;1.40;0.90;;;;;;;;;;5071683;28;20097;-31
2023/04/30 07:59:53;;;;;;;1.63;1.00;;;20.10;56.50;;;;;;5071861;28;20489;-31
2023/04/30 08:02:20;;;;;;;1.80;1.00;;;19.70;54.90;;;;;;5071503;28;20059;-32
2023/04/30 08:04:47;;;;;;;0.70;0.70;;;20.50;65.90;;;;;;5065844;28;20044;-31
2023/04/30 08:07:14;;;;;;;1.30;1.00;;;20.70;59.30;;;;;;5071899;28;20054;-31
2023/04/30 08:09:41;;;;;;;1.48;0.90;;;20.60;52.10;;;;;;5071016;28;20049;-31
2023/04/30 08:12:08;;;;;;;1.98;1.00;;;21.20;49.20;;;;;;5059932;28;20068;-33
2023/04/30 08:14:35;;;;;;;1.55;0.93;;;21.70;66.00;;;;;;5059275;28;20147;-31
2023/04/30 08:17:03;;;;;;;1.80;0.90;;;20.50;47.10;;;;;;5071660;28;20434;-33
2023/04/30 08:19:31;;;;;;;1.15;0.82;;;;;;;;;;5061809;28;20059;-34
2023/04/30 08:21:58;;;;;;;1.67;1.00;;;21.00;65.40;;;;;;5051847;28;20099;-31
2023/04/30 08:24:25;;;;;;;1.55;0.90;;;20.90;65.50;;;;;;5059473;28;20049;-31
2023/04/30 08:26:51;;;;;;;1.77;1.10;;;21.40;65.40;;;;;;5075374;28;20413;-32
2023/04/30 08:29:19;;;;;;;1.60;0.90;;;;;;;;;;5071947;28;20051;-35
2023/04/30 08:31:45;;;;;;;1.10;0.90;;;21.20;65.40;;;;;;5065831;28;20081;-31
2023/04/30 08:34:13;;;;;;;1.98;1.20;;;21.40;65.80;;;;;;5062222;28;20516;-32
2023/04/30 08:36:40;;;;;;;1.27;0.85;;;20.60;65.40;;;;;;5074832;28;20416;-31
2023/04/30 08:39:07;;;;;;;1.80;1.23;;;;;;;;;;5067277;28;20065;-33
2023/04/30 08:41:34;;;;;;;1.70;0.98;;;21.20;64.60;;;;;;5055510;28;20132;-31
2023/04/30 08:44:01;;;;;;;1.25;0.95;;;21.20;46.50;;;;;;5054985;28;20386;-35
2023/04/30 08:46:29;;;;;;;1.70;1.00;;;21.70;64.50;;;;;;5055345;28;20131;-31
2023/04/30 08:48:56;;;;;;;1.50;1.02;;;21.40;64.20;;;;;;5058255;28;20045;-31
2023/04/30 08:51:25;;;;;;;2.10;1.10;;;21.40;46.30;;;;;;5067853;28;20055;-35
2023/04/30 08:53:52;;;;;;;1.80;0.90;;;;;;;;;;5062094;28;20053;-31
2023/04/30 08:56:18;;;;;;;1.40;1.00;;;21.50;64.30;;;;;;5064656;28;20041;-31
2023/04/30 08:58:45;;;;;;;1.70;0.80;;;;;;;;;;5064294;28;20056;-35
2023/04/30 09:01:12;;;;;;;1.67;0.98;;;;;;;;;;5064162;28;20052;-32
2023/04/30 09:03:40;;;;;;;1.35;0.90;;;;;;;;;;5062636;28;20045;-35
2023/04/30 09:06:06;;;;;;;2.25;1.20;;;21.60;63.40;;;;;;5055021;28;20079;-31
2023/04/30 09:08:45;;;;;;;1.10;0.88;;;21.90;45.70;;;;;;5054517;28;20514;-35
2023/04/30 09:11:25;;;;;;;1.15;1.00;;;22.10;63.50;;;;;;5054701;28;20148;-31
2023/04/30 09:13:52;;;;;;;0.82;0.80;;;22.00;45.60;;;;;;5054810;28;20045;-34
2023/04/30 09:16:19;;;;;;;1.23;0.88;;;21.90;63.10;;;;;;5059464;28;20048;-32
2023/04/30 09:18:46;;;;;;;1.33;0.98;;;21.70;62.60;;;;;;5074600;28;20055;-31
2023/04/30 09:21:13;;;;;;;3.20;1.00;;;22.10;54.90;;;;;;5057100;28;20390;-31
2023/04/30 09:23:56;;;;;;;2.25;1.10;;;22.20;45.40;;;;;;5065238;28;20054;-35
2023/04/30 09:26:27;;;;;;;1.90;1.02;;;21.30;63.30;;;;;;5054280;28;20045;-31
2023/04/30 09:28:57;;;;;;;2.10;1.08;;;23.30;63.30;;;;;;5053525;28;20585;-31
2023/04/30 09:31:24;;;;;;;1.30;1.13;;;21.90;63.10;;;;;;5062728;28;20047;-32
2023/04/30 09:33:51;;;;;;;1.80;1.00;;;;;;;;;;5063491;28;20045;-35
2023/04/30 09:36:19;;;;;;;1.58;1.08;;;;;;;;;;5062132;28;20175;-36
2023/04/30 09:38:46;;;;;;;1.88;1.10;;;23.20;63.60;;;;;;5062401;28;20052;-33
2023/04/30 09:41:23;;;;;;;1.40;1.00;;;22.20;45.00;;;;;;5068638;28;20084;-35
2023/04/30 09:43:50;;;;;;;1.88;1.10;;;22.10;48.80;;;;;;5063600;28;20049;-35
2023/04/30 09:46:21;;;;;;;2.35;1.20;;;22.20;45.00;;;;;;5067112;28;20048;-36
2023/04/30 09:48:56;;;;;;;1.50;1.08;;;22.20;62.90;;;;;;5051910;28;20055;-32
2023/04/30 09:51:23;;;;;;;2.88;1.30;;;;;;;;;;5052295;28;20476;-37
2023/04/30 09:53:50;;;;;;;1.95;1.27;;;;;;;;;;5063466;28;20501;-32
2023/04/30 09:56:20;;;;;;;2.20;1.13;;;22.20;45.10;;;;;;5072049;28;20517;-36
2023/04/30 09:58:50;;;;;;;2.70;1.08;;;22.10;62.50;;;;;;5073076;28;20493;-33
2023/04/30 10:01:16;;;;;;;2.00;1.08;;;21.80;63.40;;;;;;5071491;28;20494;-32
2023/04/30 10:03:43;;;;;;;1.38;1.00;;;;;;;;;;5053963;28;20511;-34
2023/04/30 10:06:14;;;;;;;2.53;1.02;;;22.70;63.40;;;;;;5063822;28;20051;-32
2023/04/30 10:08:41;;;;;;;2.50;1.27;;;22.40;50.20;;;;;;5054950;28;20529;-32
2023/04/30 10:11:11;;;;;;;1.45;1.13;;;22.00;61.90;;;;;;5058940;28;20052;-32
2023/04/30 10:13:41;;;;;;;1.45;1.00;;;23.00;63.20;;;;;;5073522;28;20052;-32
2023/04/30 10:16:12;;;;;;;1.50;1.10;;;21.90;45.10;;;;;;5068792;28;20052;-36
2023/04/30 10:18:39;;;;;;;2.35;1.10;;;21.70;63.00;;;;;;5073198;28;20084;-32
2023/04/30 10:21:10;;;;;;;1.17;0.93;;;22.50;62.90;;;;;;5062534;28;20478;-32
2023/04/30 10:23:38;;;;;;;2.35;1.10;;;22.00;63.00;;;;;;5054824;28;20569;-31
2023/04/30 10:26:05;;;;;;;1.58;1.40;;;22.40;63.20;;;;;;5061556;28;20120;-32
2023/04/30 10:28:32;;;;;;;1.45;1.17;;;21.60;62.70;;;;;;5054352;28;20186;-33
2023/04/30 10:30:59;;;;;;;1.80;1.00;;;21.50;57.60;;;;;;5054287;28;20052;-34
2023/04/30 10:33:32;;;;;;;2.08;1.13;;;22.10;63.80;;;;;;5069517;28;20048;-32
2023/04/30 10:35:59;;;;;;;2.53;1.30;;;22.00;52.30;;;;;;5054086;28;20052;-33
2023/04/30 10:38:27;;;;;;;1.65;1.00;;;21.80;45.30;;;;;;5072425;28;20404;-36
2023/04/30 10:40:55;;;;;;;1.92;1.30;;;21.80;45.30;;;;;;5072850;28;20091;-36
2023/04/30 10:43:24;;;;;;;3.03;1.52;;;22.20;63.90;;;;;;5071867;28;20541;-33
2023/04/30 10:45:51;;;;;;;1.83;1.20;;;;;;;;;;5066894;28;20123;-37
2023/04/30 10:48:23;;;;;;;2.67;1.73;;;21.90;63.20;;;;;;5054653;28;20055;-32
2023/04/30 10:50:52;;;;;;;2.28;1.30;;;21.30;53.10;;;;;;5052900;28;20045;-32
2023/04/30 10:53:19;;;;;;;2.30;1.50;;;21.70;62.70;;;;;;5052171;28;20581;-32
2023/04/30 10:55:48;;;;;;;2.95;1.60;;;21.30;62.20;;;;;;5062004;28;20067;-33
2023/04/30 10:58:25;;;;;;;2.20;1.30;;;22.00;63.30;;;;;;5055433;28;20052;-32
2023/04/30 11:00:59;;;;;;;2.42;1.40;;;21.50;62.60;;;;;;5057968;28;20127;-32
2023/04/30 11:03:28;;;;;;;1.65;1.13;;;22.10;56.10;;;;;;5072232;28;20044;-32
2023/04/30 11:05:56;;;;;;;2.33;1.55;;;21.80;47.20;;;;;;5072594;28;20059;-35
2023/04/30 11:08:32;;;;;;;1.88;1.10;;;21.90;45.20;;;;;;5072513;28;20066;-32
2023/04/30 11:11:00;;;;;;;2.08;1.33;;;21.90;45.20;;;;;;5072824;28;20424;-35
2023/04/30 11:13:27;;;;;;;2.42;1.40;;;21.50;63.40;;;;;;5063484;28;20497;-31
2023/04/30 11:15:53;;;;;;;3.25;1.48;;;22.10;53.50;;;;;;5069457;28;20055;-35
2023/04/30 11:18:20;;;;;;;2.80;1.60;;;22.90;63.10;;;;;;5072159;28;20041;-32
2023/04/30 11:20:49;;;;;;;2.63;1.50;;;21.70;62.60;;;;;;5063775;28;20051;-32
2023/04/30 11:23:18;;;;;;;3.08;1.33;;;22.20;58.60;;;;;;5052335;28;20045;-33
2023/04/30 11:25:45;;;;;;;2.72;1.33;;;21.80;62.60;;;;;;5070820;28;20055;-31
2023/04/30 11:28:14;;;;;;;3.60;1.40;;;21.80;45.10;;;;;;5072480;28;20048;-35
2023/04/30 11:30:41;;;;;;;2.60;1.42;;;;;;;;;;5072102;28;20127;-33
2023/04/30 11:33:08;;;;;;;2.55;1.58;;;;;;;;;;5072224;28;20059;-37
2023/04/30 11:35:35;;;;;;;2.38;1.48;;;22.30;63.40;;;;;;5072289;28;20075;-32
2023/04/30 11:38:02;;;;;;;1.98;1.20;;;21.60;47.30;;;;;;5062329;28;20052;-33
2023/04/30 11:40:31;;;;;;;2.80;1.40;;;20.70;62.20;;;;;;5072139;28;20079;-32
2023/04/30 11:42:57;;;;;;;4.03;1.55;;;21.60;63.00;;;;;;5071447;28;20131;-33
2023/04/30 11:45:26;;;;;;;3.10;2.13;;;;;;;;;;5071772;28;20059;-32
2023/04/30 11:47:54;;;;;;;2.67;1.50;;;22.60;45.80;;;;;;5071993;28;20048;-35
2023/04/30 11:50:26;;;;;;;2.30;1.50;;;21.30;46.90;;;;;;5071354;28;20044;-33
2023/04/30 11:52:53;;;;;;;3.95;2.22;;;21.90;48.60;;;;;;5057592;28;20136;-34
2023/04/30 11:55:21;;;;;;;2.60;1.60;;;21.90;63.00;;;;;;5068394;28;20041;-32
2023/04/30 11:57:50;;;;;;;2.22;1.65;;;21.30;63.50;;;;;;5055904;28;20116;-32
2023/04/30 12:00:17;;;;;;;3.47;1.83;;;22.40;63.20;;;;;;5059100;28;20049;-32
2023/04/30 12:02:45;;;;;;;4.60;1.75;;;21.20;63.50;;;;;;5051600;28;20409;-32
2023/04/30 12:05:14;;;;;;;3.65;1.75;;;22.20;63.70;;;;;;5052095;28;20053;-33
2023/04/30 12:07:45;;;;;;;3.45;1.63;;;21.70;45.40;;;;;;5066799;28;20068;-35
2023/04/30 12:10:12;;;;;;;3.05;1.67;;;21.30;62.90;;;;;;5071764;28;20058;-32
2023/04/30 12:12:39;;;;;;;2.95;1.60;;;;;;;;;;5071235;28;20058;-36
2023/04/30 12:15:15;;;;;;;2.80;1.70;;;22.20;63.60;;;;;;5072050;28;20052;-32
2023/04/30 12:17:42;;;;;;;3.25;1.70;;;21.70;63.10;;;;;;5070895;28;20037;-32
2023/04/30 12:20:10;;;;;;;4.15;2.03;;;21.60;45.50;;;;;;5071717;28;20048;-32
2023/04/30 12:22:37;;;;;;;3.30;1.70;;;;;;;;;;5071741;28;20456;-32
2023/04/30 12:25:06;;;;;;;2.90;1.80;;;21.90;59.20;;;;;;5071395;28;20522;-33
2023/04/30 12:27:35;;;;;;;3.15;1.80;;;;;;;;;;5071785;28;20052;-32
2023/04/30 12:30:06;;;;;;;3.67;1.70;;;21.60;64.10;;;;;;5071643;28;20131;-33
2023/04/30 12:32:41;;;;;;;3.35;1.67;;;21.30;63.60;;;;;;5070844;28;20048;-32
2023/04/30 12:35:08;;;;;;;4.78;1.63;;;21.70;63.20;;;;;;5071223;28;20055;-32
2023/04/30 12:37:35;;;;;;;2.75;1.80;;;21.80;64.30;;;;;;5070948;28;20076;-34
2023/04/30 12:40:02;;;;;;;2.53;1.70;;;21.70;45.80;;;;;;5070379;28;20055;-34
2023/04/30 12:42:33;;;;;;;3.88;2.13;;;21.80;63.60;;;;;;5071238;28;20416;-32
2023/04/30 12:45:01;;;;;;;3.60;1.80;;;;;;;;;;5069701;28;20055;-36
2023/04/30 12:47:27;;;;;;;3.20;1.80;;;21.80;64.00;;;;;;5064884;28;20048;-32
2023/04/30 12:49:55;;;;;;;2.63;1.80;;;21.40;45.70;;;;;;5050296;28;20127;-38
2023/04/30 12:52:23;;;;;;;3.17;1.77;;;21.40;45.70;;;;;;5051388;28;20446;-35
2023/04/30 12:54:51;;;;;;;3.85;1.80;;;;;;;;;;5051505;28;20055;-32
2023/04/30 12:57:17;;;;;;;3.63;2.00;;;21.10;64.10;;;;;;5051365;28;20120;-32
2023/04/30 12:59:57;;;;;;;4.93;2.00;;;22.20;57.90;;;;;;5051506;28;20049;-32
2023/04/30 13:02:24;;;;;;;3.72;1.98;;;21.10;61.80;;;;;;5050758;28;20045;-32
2023/04/30 13:04:52;;;;;;;3.58;2.03;;;21.40;45.90;;;;;;5050136;28;20048;-35
2023/04/30 13:07:20;;;;;;;4.68;2.20;;;21.10;63.40;;;;;;5051304;28;20045;-33
2023/04/30 13:09:47;;;;;;;3.90;1.75;;;;;;;;;;5051255;28;20049;-35
2023/04/30 13:12:14;;;;;;;2.83;1.80;;;21.80;63.70;;;;;;5053409;28;20155;-32